Burlata, Spain
Current Conditions -  °F | °C
As of 5:30 AM on Thursday 29 Jan 2015 (Local Time) from LEPP Reporting Station
Scattered Clouds Scattered Clouds  
Wind Chill: 38°   Ceiling: Unl
Heat Index: 41°   Visibility: 6mi
Dew Point: 41°   Wind: 5mph
Humidity: 100%   Direction: 170°S
Pressure: 29.97"   Gusts: NA
Location:  42.83°N, 1.62°W
Report Text: LEPP 290430Z 17004KT 9999 FEW030 SCT040 05/05 Q1015
Loading
Personal Weather Stations






























Interactive Weather Map New forecast layout! Learn more

10-Day Weather Forecast

Advertisements
Track Severe Weather on mobile